^^
Saratoga-Weather Station Historical Data
Daily Summary for April 6, 2021 Units:  English    Metric   Both
Daily Weekly Monthly Yearly Custom
  High: Low: Average:
Temperature: 37.2 °F 33.1 °F 35.6 °F
Dew Point: 35.6 °F 31.6 °F 34 °F
Humidity: 96% 89% 94%
Wind Speed: 4mph 0mph 0.7mph
Wind Gust: 4mph - -
Wind- - West
Pressure: 30 in 29.9 in -
Precipitation: 0.14 in    
Historical Graphs
 
 
Tabular Data for April 6, 2021
Time Temperature Dew Point Pressure Wind Wind Speed Wind Gust Humidity Rainfall Rate (Hourly) solar
00:01 36.5 °F 34.2 °F 29.9 in North 2 mph 3 mph 91% 0 in 0 W/m2
00:06 36.5 °F 34.3 °F 29.9 in NW 0.9 mph 2 mph 92% 0 in 0 W/m2
00:11 36.3 °F 34.2 °F 29.9 in Calm   3 mph 92% 0 in 0 W/m2
00:16 36.3 °F 34.2 °F 29.9 in North 2 mph 2 mph 92% 0 in 0 W/m2
00:21 36.3 °F 34.2 °F 29.9 in NNE 2 mph 3 mph 92% 0 in 0 W/m2
00:26 36.3 °F 34.2 °F 29.9 in Calm   1 mph 92% 0 in 0 W/m2
00:31 36.3 °F 34.2 °F 29.9 in North 0.9 mph 4 mph 92% 0 in 0 W/m2
00:36 36.1 °F 34 °F 29.9 in NE 2 mph 3 mph 92% 0 in 0 W/m2
00:41 36.1 °F 34 °F 29.9 in East 0.9 mph 4 mph 92% 0 in 0 W/m2
00:46 36.1 °F 34 °F 29.9 in Calm   1 mph 92% 0 in 0 W/m2
00:51 36.1 °F 34.3 °F 29.9 in WNW 2 mph 4 mph 93% 0 in 0 W/m2
00:56 36 °F 33.8 °F 29.9 in Calm   2 mph 92% 0 in 0 W/m2
01:01 36 °F 34.2 °F 29.9 in Calm   1 mph 93% 0 in 0 W/m2
01:06 35.8 °F 34 °F 29.9 in NW 0.9 mph 3 mph 93% 0.01 in 0 W/m2
01:11 35.8 °F 34 °F 29.9 in NW 2 mph 2 mph 93% 0.01 in 0 W/m2
01:16 35.8 °F 34 °F 29.9 in WNW 0.9 mph 2 mph 93% 0.01 in 0 W/m2
01:21 35.6 °F 33.8 °F 29.9 in NW 2 mph 2 mph 93% 0.01 in 0 W/m2
01:27 35.6 °F 33.8 °F 29.9 in Calm   2 mph 93% 0.01 in 0 W/m2
01:32 35.6 °F 34 °F 29.9 in West 0.9 mph 2 mph 94% 0.01 in 0 W/m2
01:37 35.6 °F 34 °F 29.9 in West 0.9 mph 1 mph 94% 0.01 in 0 W/m2
01:42 35.6 °F 34 °F 29.9 in NW 0.9 mph 3 mph 94% 0.01 in 0 W/m2
01:47 35.8 °F 34.2 °F 29.9 in North 2 mph 3 mph 94% 0.01 in 0 W/m2
01:52 35.8 °F 34.2 °F 29.9 in Calm   2 mph 94% 0.01 in 0 W/m2
01:57 35.8 °F 34.2 °F 29.9 in North 0.9 mph 2 mph 94% 0.01 in 0 W/m2
02:02 35.8 °F 34.2 °F 29.9 in Calm     94% 0.01 in 0 W/m2
02:07 35.8 °F 34.2 °F 29.9 in Calm   2 mph 94% 0 in 0 W/m2
02:12 36 °F 34.3 °F 29.9 in NNE 0.9 mph 2 mph 94% 0 in 0 W/m2
02:17 36 °F 34.3 °F 29.9 in ENE 0.9 mph 2 mph 94% 0 in 0 W/m2
02:22 36 °F 34.3 °F 29.9 in NNW 0.9 mph 4 mph 94% 0 in 0 W/m2
02:27 36 °F 34.3 °F 29.9 in SSW 2 mph 2 mph 94% 0 in 0 W/m2
02:32 36 °F 34.3 °F 29.9 in NW 0.9 mph 4 mph 94% 0 in 0 W/m2
02:37 36 °F 34.3 °F 29.9 in NW 2 mph 3 mph 94% 0 in 0 W/m2
02:42 36.1 °F 34.5 °F 29.9 in Calm   4 mph 94% 0 in 0 W/m2
02:47 36.1 °F 34.5 °F 29.9 in Calm   1 mph 94% 0 in 0 W/m2
02:52 36.1 °F 34.5 °F 29.9 in NNW 0.9 mph 2 mph 94% 0 in 0 W/m2
02:57 36.1 °F 34.5 °F 29.9 in Calm     94% 0 in 0 W/m2
03:02 36.1 °F 34.5 °F 29.9 in NNE 0.9 mph 3 mph 94% 0 in 0 W/m2
03:07 36.1 °F 34.5 °F 29.9 in NNW 0.9 mph 2 mph 94% 0 in 0 W/m2
03:12 36.1 °F 34.5 °F 29.9 in Calm   1 mph 94% 0 in 0 W/m2
03:17 36.1 °F 34.5 °F 29.9 in Calm   1 mph 94% 0 in 0 W/m2
03:22 36.1 °F 34.3 °F 29.9 in NNW 0.9 mph 4 mph 93% 0 in 0 W/m2
03:27 36.3 °F 34.5 °F 29.9 in Calm   3 mph 93% 0 in 0 W/m2
03:32 36.3 °F 34.5 °F 29.9 in North 0.9 mph 3 mph 93% 0 in 0 W/m2
03:37 36.3 °F 34.5 °F 29.9 in Calm   2 mph 93% 0 in 0 W/m2
03:42 36.3 °F 34.5 °F 29.9 in Calm   3 mph 93% 0 in 0 W/m2
03:47 36.3 °F 34.5 °F 29.9 in Calm   1 mph 93% 0 in 0 W/m2
03:52 36.3 °F 34.5 °F 29.9 in North 2 mph 2 mph 93% 0 in 0 W/m2
03:57 36.3 °F 34.5 °F 29.9 in Calm   1 mph 93% 0 in 0 W/m2
04:02 36.3 °F 34.2 °F 29.9 in NNE 0.9 mph 1 mph 92% 0 in 0 W/m2
04:07 36.3 °F 34.2 °F 29.9 in Calm   2 mph 92% 0 in 0 W/m2
04:12 36.3 °F 34.2 °F 29.9 in North 0.9 mph 2 mph 92% 0 in 0 W/m2
04:17 36.1 °F 34 °F 29.9 in Calm   2 mph 92% 0 in 0 W/m2
04:22 36.1 °F 34.3 °F 29.9 in NNW 0.9 mph 2 mph 93% 0.01 in 0 W/m2
04:27 36 °F 33.8 °F 29.9 in Calm   2 mph 92% 0.01 in 0 W/m2
04:32 36 °F 34.2 °F 29.9 in Calm   1 mph 93% 0.01 in 0 W/m2
04:37 35.8 °F 34 °F 29.9 in Calm   2 mph 93% 0.02 in 0 W/m2
04:42 35.4 °F 33.6 °F 29.9 in Calm     93% 0.02 in 0 W/m2
04:47 35.2 °F 33.4 °F 29.9 in Calm   1 mph 93% 0.02 in 0 W/m2
04:52 35.1 °F 33.3 °F 29.9 in Calm   1 mph 93% 0.02 in 0 W/m2
04:57 35.1 °F 33.3 °F 29.9 in Calm   1 mph 93% 0.02 in 0 W/m2
05:02 34.9 °F 33.1 °F 29.9 in Calm   1 mph 93% 0.02 in 0 W/m2
05:07 34.5 °F 32.7 °F 29.9 in NNW 0.9 mph 2 mph 93% 0.02 in 0 W/m2
05:12 34.3 °F 32.7 °F 29.9 in Calm   1 mph 94% 0.02 in 0 W/m2
05:17 34.2 °F 32.5 °F 29.9 in East 0.9 mph 2 mph 94% 0.02 in 0 W/m2
05:22 34 °F 32.4 °F 29.9 in Calm   1 mph 94% 0.02 in 0 W/m2
05:27 33.8 °F 32.2 °F 29.9 in Calm     94% 0.02 in 0 W/m2
05:32 33.6 °F 32 °F 29.9 in Calm     94% 0.02 in 0 W/m2
05:37 33.4 °F 31.8 °F 29.9 in NNE 0.9 mph 2 mph 94% 0.01 in 0 W/m2
05:42 33.3 °F 31.6 °F 29.9 in Calm     94% 0.01 in 0 W/m2
05:47 33.3 °F 32 °F 29.9 in East 0.9 mph 2 mph 95% 0.01 in 0 W/m2
05:52 33.3 °F 32 °F 29.9 in Calm   1 mph 95% 0 in 0 W/m2
05:57 33.3 °F 32 °F 29.9 in Calm   1 mph 95% 0 in 0 W/m2
06:02 33.3 °F 32 °F 29.9 in Calm     95% 0 in 0 W/m2
06:07 33.1 °F 31.8 °F 29.9 in Calm     95% 0 in 0 W/m2
06:12 33.1 °F 31.8 °F 29.9 in Calm     95% 0 in 0 W/m2
06:17 33.1 °F 31.8 °F 29.9 in Calm     95% 0 in 0 W/m2
06:22 33.1 °F 31.8 °F 29.9 in Calm     95% 0 in 0 W/m2
06:27 33.1 °F 31.8 °F 29.9 in Calm   1 mph 95% 0 in 0 W/m2
06:32 33.1 °F 31.8 °F 29.9 in Calm     95% 0 in 0 W/m2
06:37 33.1 °F 31.8 °F 29.9 in Calm   1 mph 95% 0 in 0 W/m2
06:42 33.1 °F 31.8 °F 29.9 in Calm     95% 0 in 0 W/m2
06:47 33.1 °F 31.8 °F 29.9 in Calm     95% 0 in 0 W/m2
06:52 33.1 °F 31.8 °F 29.9 in Calm     95% 0 in 0 W/m2
06:57 33.1 °F 32 °F 29.9 in Calm     96% 0.01 in 0 W/m2
07:02 33.1 °F 32 °F 29.9 in Calm     96% 0.01 in 0 W/m2
07:07 33.3 °F 32.2 °F 29.9 in Calm     96% 0.01 in 0 W/m2
07:12 33.3 °F 32.2 °F 29.9 in West 0.9 mph 2 mph 96% 0.01 in 0 W/m2
07:17 33.3 °F 32.2 °F 29.9 in West 2 mph 4 mph 96% 0.01 in 0 W/m2
07:22 33.4 °F 32.4 °F 29.9 in Calm   2 mph 96% 0.01 in 0 W/m2
07:27 33.6 °F 32.5 °F 29.9 in Calm   4 mph 96% 0.01 in 0 W/m2
07:32 33.6 °F 32.5 °F 29.9 in Calm     96% 0.01 in 0 W/m2
07:37 33.6 °F 32.5 °F 29.9 in WNW 0.9 mph 1 mph 96% 0.01 in 0 W/m2
07:42 33.6 °F 32.5 °F 29.9 in WNW 0.9 mph 2 mph 96% 0.01 in 0 W/m2
07:47 33.6 °F 32.5 °F 29.9 in West 0.9 mph 2 mph 96% 0.01 in 0 W/m2
07:52 33.6 °F 32.5 °F 29.9 in West 0.9 mph 2 mph 96% 0.01 in 0 W/m2
07:57 33.8 °F 32.7 °F 29.9 in WNW 0.9 mph 3 mph 96% 0 in 0 W/m2
08:02 33.8 °F 32.7 °F 29.9 in Calm   2 mph 96% 0 in 0 W/m2
08:07 34 °F 32.9 °F 29.9 in WNW 2 mph 2 mph 96% 0 in 0 W/m2
08:12 34 °F 32.9 °F 29.9 in West 0.9 mph 2 mph 96% 0 in 0 W/m2
08:17 34 °F 32.9 °F 29.9 in Calm   2 mph 96% 0 in 0 W/m2
08:22 34 °F 32.9 °F 29.9 in Calm   1 mph 96% 0 in 0 W/m2
08:27 34 °F 32.9 °F 29.9 in Calm     96% 0 in 0 W/m2
08:32 34 °F 32.9 °F 29.9 in Calm   1 mph 96% 0 in 0 W/m2
08:37 34 °F 32.9 °F 29.9 in Calm   3 mph 96% 0 in 0 W/m2
08:42 34 °F 32.9 °F 29.9 in Calm   1 mph 96% 0.01 in 0 W/m2
08:47 34 °F 32.9 °F 29.9 in Calm   2 mph 96% 0.01 in 0 W/m2
08:52 34.2 °F 33.1 °F 29.9 in Calm   1 mph 96% 0.01 in 5 W/m2
08:57 34.2 °F 33.1 °F 29.9 in NNW 0.9 mph 1 mph 96% 0.01 in 7 W/m2
09:02 34 °F 32.9 °F 29.9 in NNW 0.9 mph 1 mph 96% 0.02 in 9 W/m2
09:07 34.2 °F 33.1 °F 29.9 in NW 0.9 mph 1 mph 96% 0.02 in 12 W/m2
09:12 34.2 °F 33.1 °F 29.9 in Calm     96% 0.02 in 16 W/m2
09:17 34.2 °F 33.1 °F 29.9 in NW 0.9 mph 2 mph 96% 0.02 in 21 W/m2
09:23 34.2 °F 33.1 °F 29.9 in Calm     96% 0.02 in 21 W/m2
09:28 34.2 °F 33.1 °F 29.9 in NW 0.9 mph 2 mph 96% 0.02 in 19 W/m2
09:33 34.2 °F 33.1 °F 29.9 in Calm   1 mph 96% 0.02 in 21 W/m2
09:38 34.2 °F 33.1 °F 29.9 in Calm   2 mph 96% 0.03 in 23 W/m2
09:43 34.2 °F 33.1 °F 29.9 in WNW 0.9 mph 2 mph 96% 0.02 in 26 W/m2
09:48 34.2 °F 33.1 °F 29.9 in Calm   1 mph 96% 0.02 in 26 W/m2
09:53 34.2 °F 33.1 °F 29.9 in Calm     96% 0.02 in 32 W/m2
09:58 34.3 °F 33.3 °F 29.9 in Calm   2 mph 96% 0.03 in 44 W/m2
10:03 34.3 °F 33.3 °F 29.9 in Calm   1 mph 96% 0.02 in 49 W/m2
10:08 34.3 °F 33.3 °F 29.9 in Calm   3 mph 96% 0.02 in 53 W/m2
10:13 34.3 °F 33.3 °F 29.9 in Calm   1 mph 96% 0.03 in 49 W/m2
10:18 34.3 °F 33.3 °F 29.9 in NE 0.9 mph 2 mph 96% 0.03 in 51 W/m2
10:23 34.5 °F 33.4 °F 29.9 in NE 0.9 mph 1 mph 96% 0.03 in 46 W/m2
10:28 34.5 °F 33.4 °F 29.9 in Calm     96% 0.03 in 37 W/m2
10:33 34.5 °F 33.4 °F 29.9 in Calm   3 mph 96% 0.03 in 32 W/m2
10:38 34.5 °F 33.4 °F 29.9 in ENE 2 mph 2 mph 96% 0.02 in 37 W/m2
10:43 34.5 °F 33.4 °F 29.9 in Calm   3 mph 96% 0.03 in 37 W/m2
10:48 34.5 °F 33.4 °F 29.9 in North 0.9 mph 1 mph 96% 0.03 in 39 W/m2
10:53 34.5 °F 33.3 °F 29.9 in Calm   3 mph 95% 0.03 in 33 W/m2
10:58 34.5 °F 33.3 °F 29.9 in West 0.9 mph 2 mph 95% 0.03 in 26 W/m2
11:08 34.7 °F 33.6 °F 29.9 in WNW 0.9 mph 1 mph 96% 0.03 in 44 W/m2
11:13 34.7 °F 33.6 °F 29.9 in Calm   2 mph 96% 0.02 in 56 W/m2
11:18 34.9 °F 33.8 °F 29.9 in WNW 2 mph 2 mph 96% 0.03 in 76 W/m2
11:23 34.9 °F 33.8 °F 29.9 in WNW 0.9 mph 2 mph 96% 0.02 in 88 W/m2
11:28 35.1 °F 34 °F 29.9 in WNW 2 mph 2 mph 96% 0.02 in 100 W/m2
11:33 35.1 °F 33.8 °F 29.9 in Calm   2 mph 95% 0.02 in 105 W/m2
11:38 35.2 °F 34 °F 29.9 in WNW 2 mph 2 mph 95% 0.03 in 123 W/m2
11:43 35.4 °F 34.3 °F 29.9 in West 0.9 mph 2 mph 96% 0.02 in 116 W/m2
11:48 35.4 °F 34.2 °F 29.9 in Calm   4 mph 95% 0.02 in 97 W/m2
11:53 35.6 °F 34.3 °F 29.9 in WNW 0.9 mph 3 mph 95% 0.02 in 113 W/m2
11:58 35.8 °F 34.5 °F 29.9 in WNW 0.9 mph 2 mph 95% 0.02 in 116 W/m2
12:03 36 °F 34.7 °F 29.9 in WNW 2 mph 2 mph 95% 0.02 in 137 W/m2
12:08 36.1 °F 34.9 °F 29.9 in WNW 0.9 mph 3 mph 95% 0.02 in 165 W/m2
12:13 36.3 °F 35.1 °F 29.9 in WNW 0.9 mph 2 mph 95% 0.02 in 142 W/m2
12:18 36.5 °F 35.2 °F 29.9 in WNW 2 mph 3 mph 95% 0.01 in 141 W/m2
12:23 36.9 °F 35.6 °F 29.9 in NW 0.9 mph 3 mph 95% 0.01 in 95 W/m2
12:28 36.9 °F 35.2 °F 29.9 in NNW 0.9 mph 2 mph 94% 0.01 in 76 W/m2
12:33 37 °F 35.4 °F 29.9 in NW 0.9 mph 3 mph 94% 0.01 in 49 W/m2
12:38 37 °F 35.4 °F 29.9 in Calm   2 mph 94% 0 in 46 W/m2
12:43 37 °F 35.4 °F 29.9 in NW 0.9 mph 2 mph 94% 0 in 67 W/m2
12:48 37 °F 35.4 °F 29.9 in North 0.9 mph 2 mph 94% 0 in 76 W/m2
12:53 37 °F 35.4 °F 29.9 in North 4 mph 4 mph 94% 0 in 65 W/m2
12:58 37 °F 35.4 °F 29.9 in Calm   2 mph 94% 0 in 44 W/m2
13:03 37.2 °F 35.4 °F 29.9 in North 0.9 mph 2 mph 93% 0 in 35 W/m2
13:08 37.2 °F 35.6 °F 29.9 in North 2 mph 3 mph 94% 0 in 33 W/m2
13:13 37.2 °F 35.6 °F 29.9 in NNW 0.9 mph 4 mph 94% 0 in 37 W/m2
13:18 37 °F 35.2 °F 29.9 in Calm   2 mph 93% 0 in 32 W/m2
13:23 37 °F 35.2 °F 29.9 in NNE 0.9 mph 4 mph 93% 0 in 25 W/m2
13:28 37 °F 35.2 °F 29.9 in Calm   2 mph 93% 0 in 21 W/m2
13:33 37 °F 35.2 °F 29.9 in Calm     93% 0 in 18 W/m2
13:38 37 °F 35.2 °F 29.9 in Calm   2 mph 93% 0 in 14 W/m2
13:43 36.9 °F 35.1 °F 29.9 in Calm     93% 0 in 18 W/m2
13:48 37 °F 35.2 °F 29.9 in NNE 0.9 mph 2 mph 93% 0 in 18 W/m2
13:53 36.9 °F 35.1 °F 29.9 in Calm     93% 0 in 23 W/m2
13:58 36.9 °F 35.1 °F 29.9 in Calm   1 mph 93% 0 in 23 W/m2
14:03 37 °F 35.2 °F 29.9 in NE 2 mph 2 mph 93% 0 in 39 W/m2
14:08 37 °F 35.2 °F 29.9 in Calm   1 mph 93% 0 in 46 W/m2
14:13 37 °F 35.2 °F 29.9 in NE 0.9 mph 1 mph 93% 0.01 in 42 W/m2
14:18 37 °F 35.2 °F 29.9 in NE 0.9 mph 2 mph 93% 0.01 in 46 W/m2
14:23 36.9 °F 35.1 °F 29.9 in Calm   1 mph 93% 0.01 in 46 W/m2
14:28 36.9 °F 35.1 °F 29.9 in Calm   1 mph 93% 0.01 in 46 W/m2
14:33 36.9 °F 35.1 °F 29.9 in Calm     93% 0.01 in 35 W/m2
14:38 36.9 °F 35.2 °F 29.9 in Calm     94% 0.01 in 26 W/m2
14:43 36.9 °F 35.2 °F 29.9 in East 0.9 mph 1 mph 94% 0.01 in 28 W/m2
14:48 36.9 °F 35.2 °F 29.9 in Calm   1 mph 94% 0.01 in 32 W/m2
14:53 36.9 °F 35.2 °F 29.9 in Calm     94% 0.01 in 37 W/m2
14:58 36.9 °F 35.2 °F 29.9 in WSW 0.9 mph 3 mph 94% 0.01 in 30 W/m2
15:03 36.9 °F 35.2 °F 29.9 in Calm     94% 0.01 in 23 W/m2
15:08 36.9 °F 35.2 °F 29.9 in WSW 2 mph 3 mph 94% 0.01 in 18 W/m2
15:13 36.9 °F 35.2 °F 29.9 in WNW 0.9 mph 2 mph 94% 0 in 18 W/m2
15:18 37 °F 35.4 °F 29.9 in Calm   3 mph 94% 0 in 14 W/m2
15:23 37 °F 35.4 °F 29.9 in WNW 0.9 mph 2 mph 94% 0 in 12 W/m2
15:28 37 °F 35.2 °F 29.9 in Calm   2 mph 93% 0 in 12 W/m2
15:33 37 °F 35.2 °F 29.9 in Calm   2 mph 93% 0 in 11 W/m2
15:38 37 °F 35.2 °F 29.9 in Calm   1 mph 93% 0 in 11 W/m2
15:43 37 °F 35.2 °F 29.9 in Calm   1 mph 93% 0 in 11 W/m2
15:48 37 °F 34.9 °F 29.9 in Calm     92% 0 in 9 W/m2
15:53 37 °F 35.2 °F 29.9 in Calm     93% 0 in 11 W/m2
15:58 37 °F 34.9 °F 29.9 in Calm     92% 0 in 9 W/m2
16:03 37 °F 35.2 °F 29.9 in Calm     93% 0 in 9 W/m2
16:08 37 °F 35.2 °F 29.9 in Calm   1 mph 93% 0 in 7 W/m2
16:13 37 °F 35.2 °F 29.9 in Calm     93% 0 in 5 W/m2
16:18 36.9 °F 35.1 °F 29.9 in Calm   1 mph 93% 0 in 5 W/m2
16:24 36.9 °F 35.1 °F 29.9 in WNW 2 mph 2 mph 93% 0 in 5 W/m2
16:29 36.9 °F 35.1 °F 29.9 in West 2 mph 2 mph 93% 0 in 0 W/m2
16:34 36.9 °F 35.2 °F 29.9 in West 0.9 mph 2 mph 94% 0 in 0 W/m2
16:39 36.9 °F 35.2 °F 29.9 in WNW 0.9 mph 2 mph 94% 0 in 0 W/m2
16:44 36.9 °F 35.2 °F 29.9 in WNW 2 mph 3 mph 94% 0 in 0 W/m2
16:49 36.9 °F 35.2 °F 29.9 in West 0.9 mph 2 mph 94% 0 in 0 W/m2
16:54 36.7 °F 35.1 °F 29.9 in West 2 mph 3 mph 94% 0 in 0 W/m2
16:59 36.7 °F 35.1 °F 29.9 in Calm   2 mph 94% 0 in 0 W/m2
17:04 36.7 °F 35.1 °F 29.9 in West 4 mph 4 mph 94% 0 in 0 W/m2
17:09 36.7 °F 35.1 °F 29.9 in Calm   2 mph 94% 0 in 0 W/m2
17:14 36.7 °F 35.1 °F 29.9 in NW 2.9 mph 3 mph 94% 0 in 0 W/m2
17:19 36.7 °F 35.1 °F 29.9 in WNW 2 mph 4 mph 94% 0 in 0 W/m2
17:24 36.7 °F 35.1 °F 29.9 in WNW 0.9 mph 1 mph 94% 0 in 0 W/m2
17:29 36.5 °F 34.9 °F 29.9 in WNW 0.9 mph 2 mph 94% 0.01 in 0 W/m2
17:34 36.5 °F 34.9 °F 29.9 in West 0.9 mph 2 mph 94% 0.01 in 0 W/m2
17:39 36.3 °F 34.7 °F 29.9 in West 0.9 mph 2 mph 94% 0.01 in 0 W/m2
17:44 36.3 °F 34.7 °F 29.9 in West 0.9 mph 1 mph 94% 0.01 in 0 W/m2
17:49 36.3 °F 34.7 °F 29.9 in West 0.9 mph 2 mph 94% 0.01 in 0 W/m2
17:54 36.1 °F 34.5 °F 29.9 in WSW 2.9 mph 4 mph 94% 0.01 in 0 W/m2
17:59 36.1 °F 34.5 °F 29.9 in WSW 2 mph 4 mph 94% 0.01 in 0 W/m2
18:04 36.1 °F 34.5 °F 29.9 in West 2.9 mph 4 mph 94% 0.01 in 0 W/m2
18:09 36.1 °F 34.5 °F 30 in West 0.9 mph 2 mph 94% 0.01 in 0 W/m2
18:14 36.1 °F 34.5 °F 30 in West 0.9 mph 3 mph 94% 0.01 in 0 W/m2
18:19 36.1 °F 34.5 °F 30 in West 2 mph 4 mph 94% 0.01 in 0 W/m2
18:24 36.1 °F 34.5 °F 30 in WNW 2 mph 2 mph 94% 0.01 in 0 W/m2
18:29 36.1 °F 34.5 °F 30 in WNW 2 mph 4 mph 94% 0 in 0 W/m2
18:34 36 °F 34.3 °F 30 in Calm   1 mph 94% 0 in 0 W/m2
18:39 36 °F 34.3 °F 30 in Calm     94% 0 in 0 W/m2
18:44 36 °F 34.3 °F 30 in West 0.9 mph 2 mph 94% 0 in 0 W/m2
18:49 36 °F 34.3 °F 30 in West 0.9 mph 1 mph 94% 0 in 0 W/m2
18:54 36 °F 34.3 °F 30 in Calm   1 mph 94% 0 in 0 W/m2
18:59 36 °F 34.3 °F 30 in Calm   1 mph 94% 0 in 0 W/m2
19:04 36 °F 34.3 °F 30 in Calm   1 mph 94% 0 in 0 W/m2
19:09 35.8 °F 34.2 °F 30 in Calm   1 mph 94% 0 in 0 W/m2
19:14 35.8 °F 34.2 °F 30 in Calm     94% 0 in 0 W/m2
19:19 35.8 °F 34.2 °F 30 in Calm     94% 0 in 0 W/m2
19:24 35.8 °F 34.2 °F 30 in Calm   1 mph 94% 0 in 0 W/m2
19:29 35.8 °F 34.2 °F 30 in West 0.9 mph 2 mph 94% 0 in 0 W/m2
19:34 35.8 °F 34.2 °F 30 in West 0.9 mph 2 mph 94% 0 in 0 W/m2
19:39 35.8 °F 34.2 °F 30 in WNW 0.9 mph 3 mph 94% 0 in 0 W/m2
19:44 36 °F 34.3 °F 30 in WSW 0.9 mph 2 mph 94% 0 in 0 W/m2
19:49 36 °F 34.3 °F 30 in West 2 mph 2 mph 94% 0 in 0 W/m2
19:54 36 °F 34.3 °F 30 in WNW 0.9 mph 3 mph 94% 0 in 0 W/m2
19:59 36 °F 34.3 °F 30 in West 2 mph 3 mph 94% 0 in 0 W/m2
20:04 36 °F 34.3 °F 30 in West 0.9 mph 2 mph 94% 0 in 0 W/m2
20:09 36 °F 34.3 °F 30 in Calm     94% 0 in 0 W/m2
20:14 36 °F 34.3 °F 30 in West 0.9 mph 1 mph 94% 0 in 0 W/m2
20:19 35.8 °F 34.2 °F 30 in Calm     94% 0 in 0 W/m2
20:24 35.8 °F 34.2 °F 30 in Calm     94% 0 in 0 W/m2
20:29 35.8 °F 34.2 °F 30 in West 2 mph 3 mph 94% 0 in 0 W/m2
20:34 35.6 °F 34 °F 30 in West 0.9 mph 2 mph 94% 0 in 0 W/m2
20:39 35.8 °F 34 °F 30 in WSW 2 mph 3 mph 93% 0 in 0 W/m2
20:44 35.8 °F 34 °F 30 in WSW 0.9 mph 2 mph 93% 0 in 0 W/m2
20:49 35.8 °F 34 °F 30 in Calm   2 mph 93% 0 in 0 W/m2
20:54 35.6 °F 33.8 °F 30 in Calm   1 mph 93% 0 in 0 W/m2
20:59 35.6 °F 33.8 °F 30 in Calm   1 mph 93% 0 in 0 W/m2
21:04 35.6 °F 33.8 °F 30 in Calm   1 mph 93% 0 in 0 W/m2
21:09 35.6 °F 33.8 °F 30 in Calm     93% 0 in 0 W/m2
21:14 35.4 °F 33.6 °F 30 in Calm   1 mph 93% 0 in 0 W/m2
21:19 35.4 °F 33.8 °F 30 in Calm     94% 0 in 0 W/m2
21:24 35.4 °F 33.8 °F 30 in Calm   2 mph 94% 0 in 0 W/m2
21:29 35.2 °F 33.6 °F 30 in Calm   1 mph 94% 0 in 0 W/m2
21:34 35.2 °F 33.6 °F 30 in Calm     94% 0 in 0 W/m2
21:39 35.2 °F 33.6 °F 30 in Calm   2 mph 94% 0 in 0 W/m2
21:44 35.1 °F 33.4 °F 30 in WSW 0.9 mph 1 mph 94% 0 in 0 W/m2
21:49 35.1 °F 33.4 °F 30 in Calm   2 mph 94% 0 in 0 W/m2
21:54 35.1 °F 33.4 °F 30 in WSW 0.9 mph 2 mph 94% 0 in 0 W/m2
21:59 35.1 °F 33.4 °F 30 in WSW 0.9 mph 2 mph 94% 0 in 0 W/m2
22:04 35.1 °F 33.3 °F 30 in WSW 0.9 mph 2 mph 93% 0 in 0 W/m2
22:09 35.1 °F 33.3 °F 30 in SW 0.9 mph 2 mph 93% 0 in 0 W/m2
22:14 35.2 °F 33.4 °F 30 in WSW 2 mph 3 mph 93% 0 in 0 W/m2
22:19 35.2 °F 33.4 °F 30 in WSW 0.9 mph 3 mph 93% 0 in 0 W/m2
22:24 35.2 °F 33.4 °F 30 in West 0.9 mph 2 mph 93% 0 in 0 W/m2
22:29 35.2 °F 33.4 °F 30 in West 0.9 mph 3 mph 93% 0 in 0 W/m2
22:34 35.2 °F 33.1 °F 30 in West 0.9 mph 2 mph 92% 0 in 0 W/m2
22:39 35.1 °F 32.9 °F 30 in West 0.9 mph 1 mph 92% 0 in 0 W/m2
22:44 35.1 °F 32.9 °F 30 in West 0.9 mph 1 mph 92% 0 in 0 W/m2
22:49 35.1 °F 32.9 °F 30 in Calm     92% 0 in 0 W/m2
22:54 35.1 °F 32.9 °F 30 in SW 0.9 mph 2 mph 92% 0 in 0 W/m2
22:59 35.1 °F 32.9 °F 30 in West 2 mph 3 mph 92% 0 in 0 W/m2
23:04 35.1 °F 32.9 °F 30 in West 2 mph 3 mph 92% 0 in 0 W/m2
23:09 35.1 °F 32.9 °F 30 in West 0.9 mph 3 mph 92% 0 in 0 W/m2
23:14 35.1 °F 32.9 °F 30 in West 2 mph 2 mph 92% 0 in 0 W/m2
23:19 35.1 °F 32.7 °F 30 in WNW 0.9 mph 2 mph 91% 0 in 0 W/m2
23:24 35.1 °F 32.7 °F 30 in WNW 0.9 mph 2 mph 91% 0 in 0 W/m2
23:29 35.1 °F 32.7 °F 30 in West 2.9 mph 4 mph 91% 0 in 0 W/m2
23:34 35.1 °F 32.4 °F 30 in WSW 0.9 mph 2 mph 90% 0 in 0 W/m2
23:39 35.1 °F 32.4 °F 30 in West 0.9 mph 3 mph 90% 0 in 0 W/m2
23:44 35.1 °F 32.4 °F 30 in West 0.9 mph 3 mph 90% 0 in 0 W/m2
23:49 35.1 °F 32.2 °F 30 in West 2.9 mph 3 mph 89% 0 in 0 W/m2
23:54 34.9 °F 32 °F 30 in West 0.9 mph 3 mph 89% 0 in 0 W/m2
23:59 34.9 °F 32 °F 30 in West 0.9 mph 3 mph 89% 0 in 0 W/m2
Juneau County Weather
Compliments of Weather Underground - 4 mb